sensor_id;sensor_type;location;lat;lon;timestamp;P1;durP1;ratioP1;P2;durP2;ratioP2
15699;SDS011;7950;42.744;23.174;2023-04-15T00:03:50;4.60;;;2.03;;
15699;SDS011;7950;42.744;23.174;2023-04-15T00:06:21;4.33;;;2.37;;
15699;SDS011;7950;42.744;23.174;2023-04-15T00:08:50;3.53;;;2.03;;
15699;SDS011;7950;42.744;23.174;2023-04-15T00:11:18;3.50;;;2.50;;
15699;SDS011;7950;42.744;23.174;2023-04-15T00:13:47;4.23;;;2.40;;
15699;SDS011;7950;42.744;23.174;2023-04-15T00:16:15;3.10;;;2.80;;
15699;SDS011;7950;42.744;23.174;2023-04-15T00:18:45;4.30;;;2.67;;
15699;SDS011;7950;42.744;23.174;2023-04-15T00:21:14;3.90;;;2.50;;
15699;SDS011;7950;42.744;23.174;2023-04-15T00:23:42;3.40;;;2.70;;
15699;SDS011;7950;42.744;23.174;2023-04-15T00:26:15;3.97;;;2.70;;
15699;SDS011;7950;42.744;23.174;2023-04-15T00:28:44;5.63;;;2.77;;
15699;SDS011;7950;42.744;23.174;2023-04-15T00:31:18;3.03;;;2.73;;
15699;SDS011;7950;42.744;23.174;2023-04-15T00:33:48;3.47;;;2.47;;
15699;SDS011;7950;42.744;23.174;2023-04-15T00:36:17;5.33;;;2.17;;
15699;SDS011;7950;42.744;23.174;2023-04-15T00:38:45;3.03;;;2.50;;
15699;SDS011;7950;42.744;23.174;2023-04-15T00:41:14;3.77;;;2.50;;
15699;SDS011;7950;42.744;23.174;2023-04-15T00:43:42;3.23;;;2.63;;
15699;SDS011;7950;42.744;23.174;2023-04-15T00:46:12;7.77;;;2.37;;
15699;SDS011;7950;42.744;23.174;2023-04-15T00:48:42;3.57;;;2.43;;
15699;SDS011;7950;42.744;23.174;2023-04-15T00:51:13;4.33;;;2.10;;
15699;SDS011;7950;42.744;23.174;2023-04-15T00:53:42;3.83;;;2.37;;
15699;SDS011;7950;42.744;23.174;2023-04-15T00:56:11;5.53;;;2.37;;
15699;SDS011;7950;42.744;23.174;2023-04-15T00:58:40;6.47;;;2.43;;
15699;SDS011;7950;42.744;23.174;2023-04-15T01:01:09;4.53;;;2.57;;
15699;SDS011;7950;42.744;23.174;2023-04-15T01:03:37;2.77;;;1.80;;
15699;SDS011;7950;42.744;23.174;2023-04-15T01:06:07;3.90;;;2.53;;
15699;SDS011;7950;42.744;23.174;2023-04-15T01:08:36;3.50;;;2.77;;
15699;SDS011;7950;42.744;23.174;2023-04-15T01:11:05;3.83;;;2.60;;
15699;SDS011;7950;42.744;23.174;2023-04-15T01:13:35;5.67;;;3.00;;
15699;SDS011;7950;42.744;23.174;2023-04-15T01:16:04;3.53;;;2.97;;
15699;SDS011;7950;42.744;23.174;2023-04-15T01:18:34;4.17;;;2.97;;
15699;SDS011;7950;42.744;23.174;2023-04-15T01:21:03;3.40;;;2.90;;
15699;SDS011;7950;42.744;23.174;2023-04-15T01:23:34;4.43;;;2.80;;
15699;SDS011;7950;42.744;23.174;2023-04-15T01:26:06;4.57;;;3.03;;
15699;SDS011;7950;42.744;23.174;2023-04-15T01:28:50;3.30;;;2.77;;
15699;SDS011;7950;42.744;23.174;2023-04-15T01:31:18;6.13;;;2.83;;
15699;SDS011;7950;42.744;23.174;2023-04-15T01:33:47;4.27;;;2.67;;
15699;SDS011;7950;42.744;23.174;2023-04-15T01:36:16;5.93;;;3.47;;
15699;SDS011;7950;42.744;23.174;2023-04-15T01:38:44;6.43;;;3.57;;
15699;SDS011;7950;42.744;23.174;2023-04-15T01:41:15;5.00;;;3.40;;
15699;SDS011;7950;42.744;23.174;2023-04-15T01:43:49;6.30;;;3.83;;
15699;SDS011;7950;42.744;23.174;2023-04-15T01:46:17;4.73;;;3.37;;
15699;SDS011;7950;42.744;23.174;2023-04-15T01:48:46;4.33;;;3.30;;
15699;SDS011;7950;42.744;23.174;2023-04-15T01:51:14;3.77;;;3.10;;
15699;SDS011;7950;42.744;23.174;2023-04-15T01:53:43;4.73;;;3.77;;
15699;SDS011;7950;42.744;23.174;2023-04-15T01:56:11;5.63;;;3.20;;
15699;SDS011;7950;42.744;23.174;2023-04-15T01:58:43;3.80;;;3.20;;
15699;SDS011;7950;42.744;23.174;2023-04-15T02:01:12;4.10;;;3.37;;
15699;SDS011;7950;42.744;23.174;2023-04-15T02:03:42;4.87;;;3.13;;
15699;SDS011;7950;42.744;23.174;2023-04-15T02:06:11;7.97;;;3.10;;
15699;SDS011;7950;42.744;23.174;2023-04-15T02:08:39;3.90;;;3.10;;
15699;SDS011;7950;42.744;23.174;2023-04-15T02:11:08;5.63;;;2.83;;
15699;SDS011;7950;42.744;23.174;2023-04-15T02:13:37;3.73;;;2.63;;
15699;SDS011;7950;42.744;23.174;2023-04-15T02:16:15;7.70;;;3.17;;
15699;SDS011;7950;42.744;23.174;2023-04-15T02:18:44;4.13;;;2.33;;
15699;SDS011;7950;42.744;23.174;2023-04-15T02:21:13;4.03;;;2.50;;
15699;SDS011;7950;42.744;23.174;2023-04-15T02:23:42;6.17;;;3.40;;
15699;SDS011;7950;42.744;23.174;2023-04-15T02:26:13;5.27;;;3.33;;
15699;SDS011;7950;42.744;23.174;2023-04-15T02:28:42;2.97;;;2.50;;
15699;SDS011;7950;42.744;23.174;2023-04-15T02:34:07;6.17;;;4.17;;
15699;SDS011;7950;42.744;23.174;2023-04-15T02:36:36;6.20;;;2.97;;
15699;SDS011;7950;42.744;23.174;2023-04-15T02:39:05;3.40;;;2.73;;
15699;SDS011;7950;42.744;23.174;2023-04-15T02:41:34;5.43;;;2.60;;
15699;SDS011;7950;42.744;23.174;2023-04-15T02:44:02;3.00;;;2.70;;
15699;SDS011;7950;42.744;23.174;2023-04-15T02:46:32;4.47;;;2.30;;
15699;SDS011;7950;42.744;23.174;2023-04-15T02:49:03;4.20;;;2.70;;
15699;SDS011;7950;42.744;23.174;2023-04-15T02:51:31;4.13;;;2.53;;
15699;SDS011;7950;42.744;23.174;2023-04-15T02:54:00;2.23;;;2.00;;
15699;SDS011;7950;42.744;23.174;2023-04-15T02:59:22;4.63;;;2.00;;
15699;SDS011;7950;42.744;23.174;2023-04-15T03:04:53;3.30;;;2.07;;
15699;SDS011;7950;42.744;23.174;2023-04-15T03:07:21;3.87;;;3.03;;
15699;SDS011;7950;42.744;23.174;2023-04-15T03:09:50;4.97;;;4.47;;
15699;SDS011;7950;42.744;23.174;2023-04-15T03:12:18;3.43;;;2.37;;
15699;SDS011;7950;42.744;23.174;2023-04-15T03:14:47;3.53;;;2.00;;
15699;SDS011;7950;42.744;23.174;2023-04-15T03:17:15;3.23;;;1.93;;
15699;SDS011;7950;42.744;23.174;2023-04-15T03:19:44;2.70;;;2.20;;
15699;SDS011;7950;42.744;23.174;2023-04-15T03:22:14;8.97;;;4.43;;
15699;SDS011;7950;42.744;23.174;2023-04-15T03:24:42;10.70;;;5.07;;
15699;SDS011;7950;42.744;23.174;2023-04-15T03:27:11;6.77;;;3.57;;
15699;SDS011;7950;42.744;23.174;2023-04-15T03:29:39;8.77;;;3.60;;
15699;SDS011;7950;42.744;23.174;2023-04-15T03:32:08;3.77;;;2.23;;
15699;SDS011;7950;42.744;23.174;2023-04-15T03:34:36;2.47;;;2.13;;
15699;SDS011;7950;42.744;23.174;2023-04-15T03:37:05;2.30;;;2.10;;
15699;SDS011;7950;42.744;23.174;2023-04-15T03:39:35;3.20;;;2.30;;
15699;SDS011;7950;42.744;23.174;2023-04-15T03:42:03;4.03;;;2.20;;
15699;SDS011;7950;42.744;23.174;2023-04-15T03:44:32;3.40;;;2.03;;
15699;SDS011;7950;42.744;23.174;2023-04-15T03:47:00;3.20;;;2.30;;
15699;SDS011;7950;42.744;23.174;2023-04-15T03:49:29;3.87;;;2.30;;
15699;SDS011;7950;42.744;23.174;2023-04-15T03:51:57;4.47;;;3.03;;
15699;SDS011;7950;42.744;23.174;2023-04-15T03:54:26;3.97;;;2.80;;
15699;SDS011;7950;42.744;23.174;2023-04-15T03:56:56;3.63;;;2.83;;
15699;SDS011;7950;42.744;23.174;2023-04-15T03:59:24;3.70;;;2.40;;
15699;SDS011;7950;42.744;23.174;2023-04-15T04:01:53;3.07;;;2.43;;
15699;SDS011;7950;42.744;23.174;2023-04-15T04:04:21;3.40;;;2.60;;
15699;SDS011;7950;42.744;23.174;2023-04-15T04:06:50;6.07;;;2.67;;
15699;SDS011;7950;42.744;23.174;2023-04-15T04:09:19;3.30;;;2.50;;
15699;SDS011;7950;42.744;23.174;2023-04-15T04:11:47;3.47;;;2.60;;
15699;SDS011;7950;42.744;23.174;2023-04-15T04:14:17;3.20;;;2.37;;
15699;SDS011;7950;42.744;23.174;2023-04-15T04:16:46;7.53;;;3.40;;
15699;SDS011;7950;42.744;23.174;2023-04-15T04:19:14;5.50;;;2.70;;
15699;SDS011;7950;42.744;23.174;2023-04-15T04:21:45;4.30;;;2.50;;
15699;SDS011;7950;42.744;23.174;2023-04-15T04:24:13;4.23;;;2.80;;
15699;SDS011;7950;42.744;23.174;2023-04-15T04:26:42;9.27;;;4.60;;
15699;SDS011;7950;42.744;23.174;2023-04-15T04:29:10;10.27;;;5.80;;
15699;SDS011;7950;42.744;23.174;2023-04-15T04:31:40;8.80;;;4.50;;
15699;SDS011;7950;42.744;23.174;2023-04-15T04:34:09;8.97;;;5.00;;
15699;SDS011;7950;42.744;23.174;2023-04-15T04:36:37;8.37;;;4.73;;
15699;SDS011;7950;42.744;23.174;2023-04-15T04:39:06;7.70;;;4.40;;
15699;SDS011;7950;42.744;23.174;2023-04-15T04:41:34;6.80;;;3.50;;
15699;SDS011;7950;42.744;23.174;2023-04-15T04:44:03;6.40;;;3.47;;
15699;SDS011;7950;42.744;23.174;2023-04-15T04:46:31;3.30;;;2.70;;
15699;SDS011;7950;42.744;23.174;2023-04-15T04:49:01;3.43;;;2.70;;
15699;SDS011;7950;42.744;23.174;2023-04-15T04:51:30;3.53;;;3.00;;
15699;SDS011;7950;42.744;23.174;2023-04-15T04:53:59;3.10;;;2.43;;
15699;SDS011;7950;42.744;23.174;2023-04-15T04:56:29;3.00;;;2.70;;
15699;SDS011;7950;42.744;23.174;2023-04-15T04:58:59;6.13;;;3.70;;
15699;SDS011;7950;42.744;23.174;2023-04-15T05:04:23;4.73;;;3.57;;
15699;SDS011;7950;42.744;23.174;2023-04-15T05:06:52;3.93;;;3.43;;
15699;SDS011;7950;42.744;23.174;2023-04-15T05:09:21;16.63;;;5.90;;
15699;SDS011;7950;42.744;23.174;2023-04-15T05:11:49;7.80;;;3.87;;
15699;SDS011;7950;42.744;23.174;2023-04-15T05:14:18;4.03;;;3.63;;
15699;SDS011;7950;42.744;23.174;2023-04-15T05:16:53;5.03;;;3.13;;
15699;SDS011;7950;42.744;23.174;2023-04-15T05:19:23;5.23;;;3.70;;
15699;SDS011;7950;42.744;23.174;2023-04-15T05:21:52;5.60;;;4.33;;
15699;SDS011;7950;42.744;23.174;2023-04-15T05:24:20;5.83;;;3.70;;
15699;SDS011;7950;42.744;23.174;2023-04-15T05:26:49;5.53;;;3.50;;
15699;SDS011;7950;42.744;23.174;2023-04-15T05:29:17;3.93;;;3.20;;
15699;SDS011;7950;42.744;23.174;2023-04-15T05:31:46;4.83;;;3.50;;
15699;SDS011;7950;42.744;23.174;2023-04-15T05:34:14;4.67;;;3.63;;
15699;SDS011;7950;42.744;23.174;2023-04-15T05:36:44;6.37;;;4.57;;
15699;SDS011;7950;42.744;23.174;2023-04-15T05:39:13;6.70;;;4.47;;
15699;SDS011;7950;42.744;23.174;2023-04-15T05:41:41;5.93;;;4.87;;
15699;SDS011;7950;42.744;23.174;2023-04-15T05:47:04;5.47;;;3.37;;
15699;SDS011;7950;42.744;23.174;2023-04-15T05:52:28;3.53;;;2.77;;
15699;SDS011;7950;42.744;23.174;2023-04-15T05:54:57;5.70;;;3.67;;
15699;SDS011;7950;42.744;23.174;2023-04-15T05:57:26;3.70;;;2.73;;
15699;SDS011;7950;42.744;23.174;2023-04-15T05:59:54;6.43;;;2.70;;
15699;SDS011;7950;42.744;23.174;2023-04-15T06:02:26;4.40;;;2.77;;
15699;SDS011;7950;42.744;23.174;2023-04-15T06:04:55;3.07;;;2.77;;
15699;SDS011;7950;42.744;23.174;2023-04-15T06:07:24;4.37;;;2.80;;
15699;SDS011;7950;42.744;23.174;2023-04-15T06:09:53;4.63;;;2.70;;
15699;SDS011;7950;42.744;23.174;2023-04-15T06:12:23;5.90;;;2.40;;
15699;SDS011;7950;42.744;23.174;2023-04-15T06:14:51;3.83;;;2.57;;
15699;SDS011;7950;42.744;23.174;2023-04-15T06:17:20;4.23;;;2.30;;
15699;SDS011;7950;42.744;23.174;2023-04-15T06:19:48;3.07;;;2.07;;
15699;SDS011;7950;42.744;23.174;2023-04-15T06:22:21;4.33;;;2.23;;
15699;SDS011;7950;42.744;23.174;2023-04-15T06:24:49;6.17;;;3.07;;
15699;SDS011;7950;42.744;23.174;2023-04-15T06:27:19;4.07;;;2.07;;
15699;SDS011;7950;42.744;23.174;2023-04-15T06:29:48;2.73;;;2.10;;
15699;SDS011;7950;42.744;23.174;2023-04-15T06:32:17;3.67;;;2.23;;
15699;SDS011;7950;42.744;23.174;2023-04-15T06:34:45;4.77;;;2.07;;
15699;SDS011;7950;42.744;23.174;2023-04-15T06:37:14;4.07;;;2.10;;
15699;SDS011;7950;42.744;23.174;2023-04-15T06:39:46;6.17;;;2.30;;
15699;SDS011;7950;42.744;23.174;2023-04-15T06:42:15;3.83;;;2.73;;
15699;SDS011;7950;42.744;23.174;2023-04-15T06:44:45;3.33;;;2.10;;
15699;SDS011;7950;42.744;23.174;2023-04-15T06:47:13;7.60;;;1.87;;
15699;SDS011;7950;42.744;23.174;2023-04-15T06:49:42;2.80;;;1.70;;
15699;SDS011;7950;42.744;23.174;2023-04-15T06:52:10;4.23;;;1.83;;
15699;SDS011;7950;42.744;23.174;2023-04-15T06:54:39;4.03;;;1.70;;
15699;SDS011;7950;42.744;23.174;2023-04-15T06:57:07;6.20;;;2.00;;
15699;SDS011;7950;42.744;23.174;2023-04-15T06:59:36;5.97;;;2.03;;
15699;SDS011;7950;42.744;23.174;2023-04-15T07:02:06;3.73;;;1.67;;
15699;SDS011;7950;42.744;23.174;2023-04-15T07:04:38;5.43;;;1.93;;
15699;SDS011;7950;42.744;23.174;2023-04-15T07:07:07;3.07;;;1.70;;
15699;SDS011;7950;42.744;23.174;2023-04-15T07:09:35;5.00;;;2.10;;
15699;SDS011;7950;42.744;23.174;2023-04-15T07:12:04;7.00;;;1.70;;
15699;SDS011;7950;42.744;23.174;2023-04-15T07:14:33;5.87;;;1.90;;
15699;SDS011;7950;42.744;23.174;2023-04-15T07:17:01;4.63;;;1.80;;
15699;SDS011;7950;42.744;23.174;2023-04-15T07:19:31;4.93;;;2.13;;
15699;SDS011;7950;42.744;23.174;2023-04-15T07:22:00;3.30;;;1.50;;
15699;SDS011;7950;42.744;23.174;2023-04-15T07:24:29;3.40;;;1.50;;
15699;SDS011;7950;42.744;23.174;2023-04-15T07:26:57;2.13;;;1.40;;
15699;SDS011;7950;42.744;23.174;2023-04-15T07:29:26;1.97;;;1.33;;
15699;SDS011;7950;42.744;23.174;2023-04-15T07:31:55;2.53;;;1.47;;
15699;SDS011;7950;42.744;23.174;2023-04-15T07:34:23;1.23;;;1.10;;
15699;SDS011;7950;42.744;23.174;2023-04-15T07:36:55;1.53;;;0.90;;
15699;SDS011;7950;42.744;23.174;2023-04-15T07:39:23;1.80;;;1.03;;
15699;SDS011;7950;42.744;23.174;2023-04-15T07:41:53;1.87;;;0.77;;
15699;SDS011;7950;42.744;23.174;2023-04-15T07:47:16;1.50;;;0.93;;
15699;SDS011;7950;42.744;23.174;2023-04-15T07:52:39;2.97;;;1.07;;
15699;SDS011;7950;42.744;23.174;2023-04-15T07:55:08;2.20;;;1.30;;
15699;SDS011;7950;42.744;23.174;2023-04-15T07:57:37;1.67;;;0.90;;
15699;SDS011;7950;42.744;23.174;2023-04-15T08:00:06;3.47;;;0.90;;
15699;SDS011;7950;42.744;23.174;2023-04-15T08:02:36;1.67;;;0.87;;
15699;SDS011;7950;42.744;23.174;2023-04-15T08:05:06;7.20;;;2.63;;
15699;SDS011;7950;42.744;23.174;2023-04-15T08:07:36;2.67;;;1.40;;
15699;SDS011;7950;42.744;23.174;2023-04-15T08:10:07;2.73;;;1.10;;
15699;SDS011;7950;42.744;23.174;2023-04-15T08:12:36;1.97;;;1.13;;
15699;SDS011;7950;42.744;23.174;2023-04-15T08:15:20;3.40;;;1.13;;
15699;SDS011;7950;42.744;23.174;2023-04-15T08:17:48;3.20;;;1.20;;
15699;SDS011;7950;42.744;23.174;2023-04-15T08:20:17;3.57;;;1.20;;
15699;SDS011;7950;42.744;23.174;2023-04-15T08:22:46;2.00;;;1.20;;
15699;SDS011;7950;42.744;23.174;2023-04-15T08:25:18;1.93;;;1.20;;
15699;SDS011;7950;42.744;23.174;2023-04-15T08:27:47;2.87;;;1.00;;
15699;SDS011;7950;42.744;23.174;2023-04-15T08:30:16;1.90;;;1.20;;
15699;SDS011;7950;42.744;23.174;2023-04-15T08:32:45;3.10;;;1.30;;
15699;SDS011;7950;42.744;23.174;2023-04-15T08:35:13;3.60;;;1.40;;
15699;SDS011;7950;42.744;23.174;2023-04-15T08:37:42;3.27;;;1.60;;
15699;SDS011;7950;42.744;23.174;2023-04-15T08:40:11;2.40;;;1.37;;
15699;SDS011;7950;42.744;23.174;2023-04-15T08:42:43;7.57;;;1.30;;
15699;SDS011;7950;42.744;23.174;2023-04-15T08:45:16;1.83;;;1.10;;
15699;SDS011;7950;42.744;23.174;2023-04-15T08:50:43;7.70;;;3.57;;
15699;SDS011;7950;42.744;23.174;2023-04-15T08:53:12;4.10;;;1.57;;
15699;SDS011;7950;42.744;23.174;2023-04-15T08:55:42;2.97;;;1.20;;
15699;SDS011;7950;42.744;23.174;2023-04-15T08:58:14;2.50;;;1.10;;
15699;SDS011;7950;42.744;23.174;2023-04-15T09:00:43;2.53;;;1.20;;
15699;SDS011;7950;42.744;23.174;2023-04-15T09:03:12;4.07;;;1.20;;
15699;SDS011;7950;42.744;23.174;2023-04-15T09:05:43;2.40;;;1.10;;
15699;SDS011;7950;42.744;23.174;2023-04-15T09:08:12;2.67;;;1.10;;
15699;SDS011;7950;42.744;23.174;2023-04-15T09:10:40;4.03;;;1.00;;
15699;SDS011;7950;42.744;23.174;2023-04-15T09:13:09;1.43;;;0.80;;
15699;SDS011;7950;42.744;23.174;2023-04-15T09:15:40;2.17;;;1.20;;
15699;SDS011;7950;42.744;23.174;2023-04-15T09:18:10;3.27;;;1.10;;
15699;SDS011;7950;42.744;23.174;2023-04-15T09:20:39;1.13;;;0.97;;
15699;SDS011;7950;42.744;23.174;2023-04-15T09:23:12;2.73;;;1.80;;
15699;SDS011;7950;42.744;23.174;2023-04-15T09:25:42;3.73;;;1.10;;
15699;SDS011;7950;42.744;23.174;2023-04-15T09:28:12;2.53;;;1.03;;
15699;SDS011;7950;42.744;23.174;2023-04-15T09:30:42;1.23;;;0.90;;
15699;SDS011;7950;42.744;23.174;2023-04-15T09:33:15;2.10;;;1.03;;
15699;SDS011;7950;42.744;23.174;2023-04-15T09:35:51;1.83;;;1.00;;
15699;SDS011;7950;42.744;23.174;2023-04-15T09:38:25;4.23;;;1.10;;
15699;SDS011;7950;42.744;23.174;2023-04-15T09:40:54;3.47;;;1.30;;
15699;SDS011;7950;42.744;23.174;2023-04-15T09:43:35;3.80;;;1.27;;
15699;SDS011;7950;42.744;23.174;2023-04-15T09:46:14;3.30;;;0.90;;
15699;SDS011;7950;42.744;23.174;2023-04-15T09:48:45;2.63;;;1.00;;
15699;SDS011;7950;42.744;23.174;2023-04-15T09:51:13;1.77;;;0.87;;
15699;SDS011;7950;42.744;23.174;2023-04-15T09:53:42;3.07;;;1.00;;
15699;SDS011;7950;42.744;23.174;2023-04-15T09:56:10;1.27;;;0.70;;
15699;SDS011;7950;42.744;23.174;2023-04-15T09:58:54;1.83;;;0.80;;
15699;SDS011;7950;42.744;23.174;2023-04-15T10:01:25;1.80;;;0.77;;
15699;SDS011;7950;42.744;23.174;2023-04-15T10:04:10;0.97;;;0.77;;
15699;SDS011;7950;42.744;23.174;2023-04-15T10:06:38;3.53;;;1.20;;
15699;SDS011;7950;42.744;23.174;2023-04-15T10:09:07;3.00;;;1.10;;
15699;SDS011;7950;42.744;23.174;2023-04-15T10:11:36;2.33;;;0.83;;
15699;SDS011;7950;42.744;23.174;2023-04-15T10:14:05;1.80;;;0.80;;
15699;SDS011;7950;42.744;23.174;2023-04-15T10:19:32;1.93;;;1.00;;
15699;SDS011;7950;42.744;23.174;2023-04-15T10:22:04;1.03;;;0.60;;
15699;SDS011;7950;42.744;23.174;2023-04-15T10:24:34;2.40;;;0.87;;
15699;SDS011;7950;42.744;23.174;2023-04-15T10:29:56;2.10;;;1.20;;
15699;SDS011;7950;42.744;23.174;2023-04-15T10:32:30;1.27;;;0.77;;
15699;SDS011;7950;42.744;23.174;2023-04-15T10:34:59;1.37;;;0.90;;
15699;SDS011;7950;42.744;23.174;2023-04-15T10:37:33;0.70;;;0.70;;
15699;SDS011;7950;42.744;23.174;2023-04-15T10:40:23;1.83;;;0.90;;
15699;SDS011;7950;42.744;23.174;2023-04-15T10:42:54;2.60;;;0.80;;
15699;SDS011;7950;42.744;23.174;2023-04-15T10:45:24;1.60;;;0.73;;
15699;SDS011;7950;42.744;23.174;2023-04-15T10:48:00;1.20;;;0.60;;
15699;SDS011;7950;42.744;23.174;2023-04-15T10:50:31;2.10;;;0.90;;
15699;SDS011;7950;42.744;23.174;2023-04-15T10:53:01;1.47;;;0.63;;
15699;SDS011;7950;42.744;23.174;2023-04-15T10:55:32;3.23;;;0.90;;
15699;SDS011;7950;42.744;23.174;2023-04-15T11:01:08;1.47;;;0.90;;
15699;SDS011;7950;42.744;23.174;2023-04-15T11:03:39;4.10;;;0.90;;
15699;SDS011;7950;42.744;23.174;2023-04-15T11:06:10;0.93;;;0.70;;
15699;SDS011;7950;42.744;23.174;2023-04-15T11:08:51;1.70;;;1.10;;
15699;SDS011;7950;42.744;23.174;2023-04-15T11:14:36;2.00;;;1.10;;
15699;SDS011;7950;42.744;23.174;2023-04-15T11:17:08;1.50;;;0.80;;
15699;SDS011;7950;42.744;23.174;2023-04-15T11:19:38;2.23;;;1.30;;
15699;SDS011;7950;42.744;23.174;2023-04-15T11:22:07;3.03;;;1.17;;
15699;SDS011;7950;42.744;23.174;2023-04-15T11:24:45;1.53;;;0.97;;
15699;SDS011;7950;42.744;23.174;2023-04-15T11:27:19;1.50;;;1.00;;
15699;SDS011;7950;42.744;23.174;2023-04-15T11:29:49;2.13;;;0.93;;
15699;SDS011;7950;42.744;23.174;2023-04-15T11:35:11;1.53;;;1.13;;
15699;SDS011;7950;42.744;23.174;2023-04-15T11:37:39;2.10;;;1.10;;
15699;SDS011;7950;42.744;23.174;2023-04-15T11:40:08;4.03;;;1.10;;
15699;SDS011;7950;42.744;23.174;2023-04-15T11:42:37;2.97;;;1.20;;
15699;SDS011;7950;42.744;23.174;2023-04-15T11:45:15;2.80;;;1.20;;
15699;SDS011;7950;42.744;23.174;2023-04-15T11:47:43;1.40;;;1.30;;
15699;SDS011;7950;42.744;23.174;2023-04-15T11:50:14;1.77;;;0.90;;
15699;SDS011;7950;42.744;23.174;2023-04-15T11:55:42;2.07;;;1.10;;
15699;SDS011;7950;42.744;23.174;2023-04-15T11:58:13;2.60;;;0.90;;
15699;SDS011;7950;42.744;23.174;2023-04-15T12:00:47;2.10;;;1.10;;
15699;SDS011;7950;42.744;23.174;2023-04-15T12:03:24;1.37;;;0.90;;
15699;SDS011;7950;42.744;23.174;2023-04-15T12:06:03;2.40;;;0.90;;
15699;SDS011;7950;42.744;23.174;2023-04-15T12:11:41;1.40;;;0.93;;
15699;SDS011;7950;42.744;23.174;2023-04-15T12:14:19;1.27;;;0.83;;
15699;SDS011;7950;42.744;23.174;2023-04-15T12:16:52;3.10;;;1.23;;
15699;SDS011;7950;42.744;23.174;2023-04-15T12:19:26;2.53;;;1.00;;
15699;SDS011;7950;42.744;23.174;2023-04-15T12:22:00;1.93;;;1.00;;
15699;SDS011;7950;42.744;23.174;2023-04-15T12:24:31;1.10;;;0.97;;
15699;SDS011;7950;42.744;23.174;2023-04-15T12:27:01;1.13;;;0.90;;
15699;SDS011;7950;42.744;23.174;2023-04-15T12:29:31;2.70;;;0.90;;
15699;SDS011;7950;42.744;23.174;2023-04-15T12:35:02;2.43;;;0.90;;
15699;SDS011;7950;42.744;23.174;2023-04-15T12:37:33;1.23;;;0.80;;
15699;SDS011;7950;42.744;23.174;2023-04-15T12:40:01;1.10;;;1.00;;
15699;SDS011;7950;42.744;23.174;2023-04-15T12:45:24;1.60;;;1.07;;
15699;SDS011;7950;42.744;23.174;2023-04-15T12:47:55;1.53;;;0.97;;
15699;SDS011;7950;42.744;23.174;2023-04-15T12:50:23;0.90;;;0.90;;
15699;SDS011;7950;42.744;23.174;2023-04-15T12:52:53;1.50;;;1.20;;
15699;SDS011;7950;42.744;23.174;2023-04-15T12:55:22;1.37;;;0.97;;
15699;SDS011;7950;42.744;23.174;2023-04-15T13:00:44;3.90;;;0.90;;
15699;SDS011;7950;42.744;23.174;2023-04-15T13:03:14;2.43;;;0.80;;
15699;SDS011;7950;42.744;23.174;2023-04-15T13:05:42;2.53;;;0.90;;
15699;SDS011;7950;42.744;23.174;2023-04-15T13:08:13;2.80;;;1.20;;
15699;SDS011;7950;42.744;23.174;2023-04-15T13:10:52;1.87;;;0.90;;
15699;SDS011;7950;42.744;23.174;2023-04-15T13:13:20;1.53;;;1.10;;
15699;SDS011;7950;42.744;23.174;2023-04-15T13:15:49;1.10;;;1.00;;
15699;SDS011;7950;42.744;23.174;2023-04-15T13:18:18;1.87;;;1.00;;
15699;SDS011;7950;42.744;23.174;2023-04-15T13:20:46;1.37;;;0.93;;
15699;SDS011;7950;42.744;23.174;2023-04-15T13:23:16;3.57;;;1.20;;
15699;SDS011;7950;42.744;23.174;2023-04-15T13:25:45;2.53;;;1.20;;
15699;SDS011;7950;42.744;23.174;2023-04-15T13:28:13;3.23;;;1.10;;
15699;SDS011;7950;42.744;23.174;2023-04-15T13:30:42;1.10;;;1.00;;
15699;SDS011;7950;42.744;23.174;2023-04-15T13:33:11;3.43;;;1.13;;
15699;SDS011;7950;42.744;23.174;2023-04-15T13:35:39;2.80;;;1.17;;
15699;SDS011;7950;42.744;23.174;2023-04-15T13:38:08;3.07;;;1.07;;
15699;SDS011;7950;42.744;23.174;2023-04-15T13:40:38;2.83;;;1.00;;
15699;SDS011;7950;42.744;23.174;2023-04-15T13:43:06;2.07;;;1.00;;
15699;SDS011;7950;42.744;23.174;2023-04-15T13:45:35;3.60;;;0.83;;
15699;SDS011;7950;42.744;23.174;2023-04-15T13:48:03;1.07;;;0.83;;
15699;SDS011;7950;42.744;23.174;2023-04-15T13:50:32;2.23;;;1.00;;
15699;SDS011;7950;42.744;23.174;2023-04-15T13:53:01;2.43;;;1.10;;
15699;SDS011;7950;42.744;23.174;2023-04-15T13:55:30;1.77;;;1.20;;
15699;SDS011;7950;42.744;23.174;2023-04-15T13:58:01;2.47;;;1.17;;
15699;SDS011;7950;42.744;23.174;2023-04-15T14:00:30;1.43;;;1.00;;
15699;SDS011;7950;42.744;23.174;2023-04-15T14:02:58;1.27;;;0.90;;
15699;SDS011;7950;42.744;23.174;2023-04-15T14:05:27;0.93;;;0.90;;
15699;SDS011;7950;42.744;23.174;2023-04-15T14:07:56;1.33;;;0.90;;
15699;SDS011;7950;42.744;23.174;2023-04-15T14:10:25;1.63;;;1.00;;
15699;SDS011;7950;42.744;23.174;2023-04-15T14:12:54;1.77;;;1.00;;
15699;SDS011;7950;42.744;23.174;2023-04-15T14:15:24;1.63;;;0.90;;
15699;SDS011;7950;42.744;23.174;2023-04-15T14:17:52;1.60;;;0.90;;
15699;SDS011;7950;42.744;23.174;2023-04-15T14:20:21;2.40;;;1.00;;
15699;SDS011;7950;42.744;23.174;2023-04-15T14:22:50;2.47;;;0.90;;
15699;SDS011;7950;42.744;23.174;2023-04-15T14:25:18;1.40;;;1.10;;
15699;SDS011;7950;42.744;23.174;2023-04-15T14:28:08;1.83;;;0.80;;
15699;SDS011;7950;42.744;23.174;2023-04-15T14:30:38;1.87;;;0.90;;
15699;SDS011;7950;42.744;23.174;2023-04-15T14:33:06;0.80;;;0.67;;
15699;SDS011;7950;42.744;23.174;2023-04-15T14:35:35;2.73;;;1.80;;
15699;SDS011;7950;42.744;23.174;2023-04-15T14:38:03;7.40;;;2.80;;
15699;SDS011;7950;42.744;23.174;2023-04-15T14:40:36;4.50;;;2.97;;
15699;SDS011;7950;42.744;23.174;2023-04-15T14:46:00;2.80;;;1.33;;
15699;SDS011;7950;42.744;23.174;2023-04-15T14:48:33;2.70;;;2.23;;
15699;SDS011;7950;42.744;23.174;2023-04-15T14:51:01;1.67;;;1.30;;
15699;SDS011;7950;42.744;23.174;2023-04-15T14:53:30;1.00;;;0.90;;
15699;SDS011;7950;42.744;23.174;2023-04-15T14:55:58;1.67;;;1.00;;
15699;SDS011;7950;42.744;23.174;2023-04-15T14:58:27;1.37;;;0.90;;
15699;SDS011;7950;42.744;23.174;2023-04-15T15:00:55;2.20;;;1.47;;
15699;SDS011;7950;42.744;23.174;2023-04-15T15:03:25;1.17;;;0.80;;
15699;SDS011;7950;42.744;23.174;2023-04-15T15:05:54;1.90;;;0.90;;
15699;SDS011;7950;42.744;23.174;2023-04-15T15:08:23;1.27;;;0.90;;
15699;SDS011;7950;42.744;23.174;2023-04-15T15:10:52;3.33;;;1.00;;
15699;SDS011;7950;42.744;23.174;2023-04-15T15:13:21;2.83;;;0.90;;
15699;SDS011;7950;42.744;23.174;2023-04-15T15:15:49;1.80;;;0.80;;
15699;SDS011;7950;42.744;23.174;2023-04-15T15:18:18;1.57;;;1.00;;
15699;SDS011;7950;42.744;23.174;2023-04-15T15:20:48;1.30;;;0.80;;
15699;SDS011;7950;42.744;23.174;2023-04-15T15:23:16;2.47;;;1.10;;
15699;SDS011;7950;42.744;23.174;2023-04-15T15:25:45;2.57;;;1.00;;
15699;SDS011;7950;42.744;23.174;2023-04-15T15:28:13;2.30;;;0.90;;
15699;SDS011;7950;42.744;23.174;2023-04-15T15:30:42;2.70;;;1.00;;
15699;SDS011;7950;42.744;23.174;2023-04-15T15:33:11;1.90;;;1.00;;
15699;SDS011;7950;42.744;23.174;2023-04-15T15:35:39;2.43;;;0.90;;
15699;SDS011;7950;42.744;23.174;2023-04-15T15:38:10;2.13;;;0.93;;
15699;SDS011;7950;42.744;23.174;2023-04-15T15:40:39;1.87;;;0.90;;
15699;SDS011;7950;42.744;23.174;2023-04-15T15:43:07;1.83;;;1.00;;
15699;SDS011;7950;42.744;23.174;2023-04-15T15:45:36;2.07;;;0.90;;
15699;SDS011;7950;42.744;23.174;2023-04-15T15:48:05;1.00;;;0.80;;
15699;SDS011;7950;42.744;23.174;2023-04-15T15:50:34;2.83;;;1.07;;
15699;SDS011;7950;42.744;23.174;2023-04-15T15:53:02;1.23;;;0.80;;
15699;SDS011;7950;42.744;23.174;2023-04-15T15:55:32;2.10;;;1.10;;
15699;SDS011;7950;42.744;23.174;2023-04-15T15:58:01;2.40;;;0.90;;
15699;SDS011;7950;42.744;23.174;2023-04-15T16:00:29;1.53;;;0.90;;
15699;SDS011;7950;42.744;23.174;2023-04-15T16:02:58;2.87;;;0.90;;
15699;SDS011;7950;42.744;23.174;2023-04-15T16:05:33;1.60;;;1.20;;